createdAt,value
2019-02-05T00:00:28.207Z,33.4
2019-02-05T00:01:16.206Z,33.4
2019-02-05T00:02:07.074Z,33.3
2019-02-05T00:02:56.561Z,33.4
2019-02-05T00:03:47.210Z,33.3
2019-02-05T00:04:36.196Z,33.3
2019-02-05T00:05:27.029Z,33.3
2019-02-05T00:06:17.230Z,33.3
2019-02-05T00:07:07.136Z,33.3
2019-02-05T00:07:57.469Z,33.3
2019-02-05T00:08:47.538Z,33.3
2019-02-05T00:09:39.489Z,33.3
2019-02-05T00:10:27.373Z,33.3
2019-02-05T00:11:17.418Z,33.3
2019-02-05T00:12:07.791Z,33.3
2019-02-05T00:12:57.575Z,33.3
2019-02-05T00:13:47.346Z,33.3
2019-02-05T00:14:38.214Z,33.3
2019-02-05T00:15:28.601Z,33.3
2019-02-05T00:16:18.360Z,33.3
2019-02-05T00:17:08.382Z,33.3
2019-02-05T00:17:57.629Z,33.3
2019-02-05T00:18:51.978Z,33.2
2019-02-05T00:19:38.018Z,33.2
2019-02-05T00:20:27.883Z,33.2
2019-02-05T00:21:17.602Z,33.2
2019-02-05T00:22:07.650Z,33.2
2019-02-05T00:22:57.980Z,33.2
2019-02-05T00:23:48.357Z,33.2
2019-02-05T00:24:39.110Z,33.2
2019-02-05T00:25:28.163Z,33.1
2019-02-05T00:26:18.768Z,33.1
2019-02-05T00:27:09.110Z,33.1
2019-02-05T00:28:01.302Z,33.1
2019-02-05T00:28:48.958Z,33.1
2019-02-05T00:29:38.564Z,33.1
2019-02-05T00:30:28.819Z,33.1
2019-02-05T00:31:19.227Z,33.1
2019-02-05T00:32:08.909Z,33.1
2019-02-05T00:32:58.747Z,33.1
2019-02-05T00:33:49.492Z,33.1
2019-02-05T00:34:38.557Z,33.1
2019-02-05T00:35:29.424Z,33.1
2019-02-05T00:36:18.637Z,33.1
2019-02-05T00:37:11.549Z,33.1
2019-02-05T00:37:59.314Z,33.1
2019-02-05T00:38:49.641Z,33.1
2019-02-05T00:39:39.418Z,33.1
2019-02-05T00:40:29.766Z,33
2019-02-05T00:41:19.824Z,33
2019-02-05T00:42:09.588Z,33
2019-02-05T00:43:00.365Z,33
2019-02-05T00:43:50.281Z,33
2019-02-05T00:44:39.871Z,33
2019-02-05T00:45:30.119Z,33
2019-02-05T00:46:20.381Z,33
2019-02-05T00:47:10.024Z,32.9
2019-02-05T00:48:00.397Z,32.9
2019-02-05T00:48:50.064Z,32.9
2019-02-05T00:49:40.405Z,32.9
2019-02-05T00:50:30.204Z,32.9
2019-02-05T00:51:20.518Z,32.9
2019-02-05T00:52:11.302Z,32.9
2019-02-05T00:53:00.103Z,32.9
2019-02-05T00:53:50.983Z,32.9
2019-02-05T00:54:40.325Z,32.9
2019-02-05T00:55:31.533Z,32.9
2019-02-05T00:56:23.065Z,32.9
2019-02-05T00:57:10.935Z,32.9
2019-02-05T00:58:00.456Z,32.9
2019-02-05T00:58:51.046Z,32.9
2019-02-05T00:59:40.874Z,32.9
2019-02-05T01:00:31.245Z,32.9
2019-02-05T01:01:22.053Z,32.8
2019-02-05T01:02:11.298Z,32.8
2019-02-05T01:03:01.511Z,32.9
2019-02-05T01:03:51.042Z,32.9
2019-02-05T01:04:43.527Z,32.8
2019-02-05T01:05:31.530Z,32.8
2019-02-05T01:06:21.577Z,32.8
2019-02-05T01:07:11.626Z,32.8
2019-02-05T01:08:01.984Z,32.8
2019-02-05T01:08:51.770Z,32.8
2019-02-05T01:09:41.542Z,32.8
2019-02-05T01:10:33.135Z,32.8
2019-02-05T01:11:22.220Z,32.8
2019-02-05T01:12:11.715Z,32.8
2019-02-05T01:13:01.416Z,32.8
2019-02-05T01:13:53.222Z,32.8
2019-02-05T01:14:41.349Z,32.8
2019-02-05T01:15:31.495Z,32.8
2019-02-05T01:16:22.687Z,32.7
2019-02-05T01:17:11.539Z,32.7
2019-02-05T01:18:02.689Z,32.7
2019-02-05T01:18:52.734Z,32.7
2019-02-05T01:19:43.009Z,32.7
2019-02-05T01:20:32.581Z,32.7
2019-02-05T01:21:22.366Z,32.7
2019-02-05T01:22:12.979Z,32.7
2019-02-05T01:23:03.601Z,32.7
2019-02-05T01:23:52.815Z,32.6
2019-02-05T01:24:42.868Z,32.7
2019-02-05T01:25:33.063Z,32.7
2019-02-05T01:26:36.454Z,32.7
2019-02-05T01:27:12.234Z,32.6
2019-02-05T01:28:03.123Z,32.6
2019-02-05T01:28:54.274Z,32.6
2019-02-05T01:29:43.261Z,32.6
2019-02-05T01:30:33.328Z,32.6
2019-02-05T01:31:23.616Z,32.6
2019-02-05T01:32:16.116Z,32.6
2019-02-05T01:33:03.587Z,32.6
2019-02-05T01:33:53.523Z,32.6
2019-02-05T01:34:43.591Z,32.6
2019-02-05T01:35:33.365Z,32.6
2019-02-05T01:36:23.478Z,32.6
2019-02-05T01:37:13.864Z,32.6
2019-02-05T01:38:04.046Z,32.6
2019-02-05T01:38:53.339Z,32.6
2019-02-05T01:39:43.161Z,32.6
2019-02-05T01:40:34.283Z,32.6
2019-02-05T01:41:26.635Z,32.5
2019-02-05T01:42:13.550Z,32.5
2019-02-05T01:43:03.915Z,32.5
2019-02-05T01:43:52.903Z,32.5
2019-02-05T01:44:44.140Z,32.5
2019-02-05T01:45:34.058Z,32.5
2019-02-05T01:46:24.690Z,32.5
2019-02-05T01:47:14.550Z,32.5
2019-02-05T01:48:03.502Z,32.5
2019-02-05T01:48:54.597Z,32.5
2019-02-05T01:49:44.659Z,32.4
2019-02-05T01:50:35.936Z,32.5
2019-02-05T01:51:24.739Z,32.4
2019-02-05T01:52:14.355Z,32.5
2019-02-05T01:53:04.099Z,32.4
2019-02-05T01:53:54.930Z,32.4
2019-02-05T01:54:44.439Z,32.4
2019-02-05T01:55:34.836Z,32.4
2019-02-05T01:56:25.132Z,32.4
2019-02-05T01:57:15.157Z,32.4
2019-02-05T01:58:04.977Z,32.4
2019-02-05T01:58:55.032Z,32.5
2019-02-05T01:59:47.296Z,32.6
2019-02-05T02:00:36.036Z,32.9
2019-02-05T02:01:25.479Z,33
2019-02-05T02:02:14.705Z,33.2
2019-02-05T02:03:05.884Z,33.4
2019-02-05T02:03:55.374Z,33.6
2019-02-05T02:04:45.415Z,33.8
2019-02-05T02:05:36.899Z,33.9
2019-02-05T02:06:25.069Z,34.1
2019-02-05T02:07:15.426Z,34.3
2019-02-05T02:08:05.799Z,34.4
2019-02-05T02:08:56.595Z,34.6
2019-02-05T02:09:45.581Z,34.8
2019-02-05T02:10:35.740Z,34.9
2019-02-05T02:11:25.448Z,35.1
2019-02-05T02:12:16.486Z,35.2
2019-02-05T02:13:05.595Z,35.3
2019-02-05T02:13:56.315Z,35.4
2019-02-05T02:14:48.361Z,35.6
2019-02-05T02:15:36.453Z,35.7
2019-02-05T02:16:26.523Z,35.8
2019-02-05T02:17:16.291Z,35.9
2019-02-05T02:18:06.348Z,36.1
2019-02-05T02:18:55.399Z,36.2
2019-02-05T02:19:46.760Z,36.3
2019-02-05T02:20:36.298Z,36.4
2019-02-05T02:21:26.288Z,36.6
2019-02-05T02:22:16.968Z,36.7
2019-02-05T02:23:07.342Z,36.8
2019-02-05T02:23:59.519Z,36.9
2019-02-05T02:24:47.202Z,37
2019-02-05T02:25:37.422Z,37.1
2019-02-05T02:26:26.698Z,37.3
2019-02-05T02:27:17.268Z,37.4
2019-02-05T02:28:07.058Z,37.5
2019-02-05T02:28:56.842Z,37.6
2019-02-05T02:29:47.855Z,37.8
2019-02-05T02:30:37.304Z,37.9
2019-02-05T02:31:27.122Z,37.9
2019-02-05T02:32:17.674Z,38.1
2019-02-05T02:33:10.409Z,38.2
2019-02-05T02:33:57.772Z,38.3
2019-02-05T02:34:47.334Z,38.4
2019-02-05T02:35:37.564Z,38.5
2019-02-05T02:36:27.722Z,38.6
2019-02-05T02:37:18.078Z,38.7
2019-02-05T02:38:07.954Z,38.8
2019-02-05T02:38:58.630Z,38.9
2019-02-05T02:39:47.629Z,39
2019-02-05T02:40:37.980Z,39.1
2019-02-05T02:41:27.364Z,39.2
2019-02-05T02:42:20.420Z,39.3
2019-02-05T02:43:07.386Z,39.4
2019-02-05T02:43:58.468Z,39.5
2019-02-05T02:44:46.643Z,39.6
2019-02-05T02:45:38.310Z,39.8
2019-02-05T02:46:27.866Z,39.9
2019-02-05T02:47:18.221Z,40
2019-02-05T02:48:08.554Z,40.1
2019-02-05T02:48:59.153Z,40.3
2019-02-05T02:49:48.737Z,40.3
2019-02-05T02:50:38.954Z,40.4
2019-02-05T02:51:30.721Z,40.6
2019-02-05T02:52:19.394Z,40.7
2019-02-05T02:53:08.956Z,40.8
2019-02-05T02:53:59.046Z,40.9
2019-02-05T02:54:49.350Z,41.1
2019-02-05T02:55:39.499Z,41.3
2019-02-05T02:56:28.712Z,41.4
2019-02-05T02:57:20.228Z,41.4
2019-02-05T02:58:09.226Z,41.6
2019-02-05T02:58:59.093Z,41.6
2019-02-05T02:59:48.353Z,41.8
2019-02-05T03:00:40.178Z,41.9
2019-02-05T03:01:29.110Z,42
2019-02-05T03:02:19.312Z,42.1
2019-02-05T03:03:10.144Z,42.3
2019-02-05T03:03:59.812Z,42.4
2019-02-05T03:04:49.461Z,42.5
2019-02-05T03:08:21.177Z,42.8
2019-02-05T03:09:11.497Z,42.9
2019-02-05T03:10:03.255Z,43
2019-02-05T03:10:51.913Z,43.1
2019-02-05T03:11:41.933Z,43.2
2019-02-05T03:12:31.474Z,43.3
2019-02-05T03:13:22.920Z,43.4
2019-02-05T03:14:12.002Z,43.5
2019-02-05T03:15:02.369Z,43.6
2019-02-05T03:15:52.827Z,43.6
2019-02-05T03:16:42.872Z,43.7
2019-02-05T03:17:31.819Z,43.8
2019-02-05T03:18:21.927Z,43.9
2019-02-05T03:19:14.322Z,44.1
2019-02-05T03:20:02.617Z,44.2
2019-02-05T03:20:52.604Z,44.3
2019-02-05T03:21:42.603Z,44.4
2019-02-05T03:22:32.190Z,44.5
2019-02-05T03:23:22.541Z,44.6
2019-02-05T03:24:12.933Z,44.7
2019-02-05T03:25:04.029Z,44.8
2019-02-05T03:25:52.489Z,44.9
2019-02-05T03:26:43.176Z,44.9
2019-02-05T03:27:32.992Z,45
2019-02-05T03:28:22.856Z,45.1
2019-02-05T03:29:12.939Z,45.1
2019-02-05T03:30:03.132Z,45.2
2019-02-05T03:30:58.142Z,45.3
2019-02-05T03:31:43.471Z,45.3
2019-02-05T03:32:33.641Z,45.3
2019-02-05T03:33:23.948Z,45.3
2019-02-05T03:34:13.244Z,45.3
2019-02-05T03:35:04.333Z,45.4
2019-02-05T03:35:53.690Z,45.4
2019-02-05T03:36:45.254Z,45.4
2019-02-05T03:37:33.077Z,45.4
2019-02-05T03:38:23.546Z,45.4
2019-02-05T03:39:13.623Z,45.4
2019-02-05T03:40:04.191Z,45.4
2019-02-05T03:40:53.882Z,45.4
2019-02-05T03:41:43.824Z,45.5
2019-02-05T03:42:34.585Z,45.5
2019-02-05T03:43:23.385Z,45.5
2019-02-05T03:44:14.103Z,45.5
2019-02-05T03:45:03.908Z,45.6
2019-02-05T03:45:55.980Z,45.6
2019-02-05T03:46:43.850Z,45.6
2019-02-05T03:47:33.902Z,45.6
2019-02-05T03:48:24.507Z,45.6
2019-02-05T03:49:14.445Z,45.6
2019-02-05T03:50:04.795Z,45.6
2019-02-05T03:50:54.867Z,45.6
2019-02-05T03:51:46.580Z,45.6
2019-02-05T03:52:34.534Z,45.7
2019-02-05T03:53:24.356Z,45.7
2019-02-05T03:54:15.037Z,45.7
2019-02-05T03:55:04.663Z,45.7
2019-02-05T03:55:55.128Z,45.7
2019-02-05T03:56:44.855Z,45.7
2019-02-05T03:59:35.658Z,45.7
2019-02-05T03:59:48.757Z,45.7
2019-02-05T04:00:37.087Z,45.7
2019-02-05T04:01:26.928Z,45.7
2019-02-05T04:02:16.997Z,45.7
2019-02-05T04:03:07.304Z,45.7
2019-02-05T04:03:57.346Z,45.7
2019-02-05T04:04:47.099Z,45.7
2019-02-05T04:05:37.987Z,45.7
2019-02-05T04:06:27.233Z,45.7
2019-02-05T04:07:16.999Z,45.7
2019-02-05T04:08:07.630Z,45.7
2019-02-05T04:08:59.157Z,45.7
2019-02-05T04:09:47.201Z,45.6
2019-02-05T04:10:37.521Z,45.6
2019-02-05T04:11:27.604Z,45.6
2019-02-05T04:12:17.139Z,45.6
2019-02-05T04:13:07.968Z,45.6
2019-02-05T04:13:57.758Z,45.6
2019-02-05T04:14:48.618Z,45.6
2019-02-05T04:15:38.151Z,45.6
2019-02-05T04:16:27.953Z,45.6
2019-02-05T04:17:17.717Z,45.6
2019-02-05T04:18:09.139Z,45.6
2019-02-05T04:18:57.814Z,45.6
2019-02-05T04:19:48.492Z,45.6
2019-02-05T04:20:38.216Z,45.6
2019-02-05T04:21:28.002Z,45.6
2019-02-05T04:22:18.601Z,45.6
2019-02-05T04:23:08.156Z,45.6
2019-02-05T04:24:00.291Z,45.6
2019-02-05T04:24:48.516Z,45.6
2019-02-05T04:25:38.714Z,45.6
2019-02-05T04:26:28.358Z,45.6
2019-02-05T04:27:19.646Z,45.6
2019-02-05T04:28:08.536Z,45.6
2019-02-05T04:28:59.122Z,45.6
2019-02-05T04:29:48.848Z,45.6
2019-02-05T04:30:38.641Z,45.5
2019-02-05T04:31:29.289Z,45.5
2019-02-05T04:32:19.063Z,45.5
2019-02-05T04:33:11.542Z,45.5
2019-02-05T04:33:59.169Z,45.5
2019-02-05T04:34:49.214Z,45.5
2019-02-05T04:35:39.564Z,45.5
2019-02-05T04:36:29.430Z,45.4
2019-02-05T04:37:19.388Z,45.4
2019-02-05T04:38:08.978Z,45.4
2019-02-05T04:38:59.380Z,45.4
2019-02-05T04:39:49.850Z,45.4
2019-02-05T04:40:39.933Z,45.4
2019-02-05T04:41:29.948Z,45.4
2019-02-05T04:42:22.602Z,45.4
2019-02-05T04:43:09.544Z,45.4
2019-02-05T04:43:59.566Z,45.4
2019-02-05T04:44:49.906Z,45.4
2019-02-05T04:45:40.354Z,45.3
2019-02-05T04:46:30.535Z,45.4
2019-02-05T04:47:20.084Z,45.3
2019-02-05T04:48:10.812Z,45.3
2019-02-05T04:49:00.202Z,45.3
2019-02-05T04:49:50.279Z,45.3
2019-02-05T04:50:40.337Z,45.3
2019-02-05T04:51:32.265Z,45.3
2019-02-05T04:52:20.241Z,45.3
2019-02-05T04:53:10.820Z,45.3
2019-02-05T04:54:00.834Z,45.3
2019-02-05T04:54:50.974Z,45.3
2019-02-05T04:55:40.405Z,45.3
2019-02-05T04:56:30.857Z,45.2
2019-02-05T04:57:22.077Z,45.3
2019-02-05T04:58:11.156Z,45.3
2019-02-05T04:59:00.610Z,45.3
2019-02-05T04:59:51.249Z,45.2
2019-02-05T05:00:42.181Z,45.2
2019-02-05T05:01:31.409Z,45.2
2019-02-05T05:02:21.544Z,45.2
2019-02-05T05:03:11.474Z,45.2
2019-02-05T05:04:01.808Z,45.2
2019-02-05T05:04:51.319Z,45.1
2019-02-05T05:05:41.686Z,45.2
2019-02-05T05:06:33.456Z,45.1
2019-02-05T05:07:21.518Z,45.1
2019-02-05T05:08:11.806Z,45.1
2019-02-05T05:09:02.422Z,45.1
2019-02-05T05:09:51.971Z,45.1
2019-02-05T05:10:41.726Z,45.1
2019-02-05T05:11:31.788Z,45.1
2019-02-05T05:12:22.038Z,45.1
2019-02-05T05:13:12.237Z,45.1
2019-02-05T05:14:02.277Z,45.1
2019-02-05T05:14:52.070Z,45.1
2019-02-05T05:15:44.103Z,45.1
2019-02-05T05:16:32.121Z,45.1
2019-02-05T05:17:22.252Z,45
2019-02-05T05:18:15.259Z,45.1
2019-02-05T05:19:03.119Z,45
2019-02-05T05:19:52.676Z,45
2019-02-05T05:20:42.687Z,45
2019-02-05T05:21:33.909Z,44.9
2019-02-05T05:22:22.942Z,44.9
2019-02-05T05:23:12.875Z,45
2019-02-05T05:24:03.196Z,44.9
2019-02-05T05:24:52.907Z,44.9
2019-02-05T05:25:43.560Z,44.9
2019-02-05T05:26:32.740Z,44.9
2019-02-05T05:27:23.782Z,44.9
2019-02-05T05:28:15.561Z,44.9
2019-02-05T05:29:03.335Z,44.9
2019-02-05T05:29:53.842Z,44.9
2019-02-05T05:30:45.394Z,44.9
2019-02-05T05:31:34.137Z,44.9
2019-02-05T05:32:23.420Z,44.9
2019-02-05T05:33:14.086Z,44.9
2019-02-05T05:34:04.185Z,44.9
2019-02-05T05:34:54.202Z,44.8
2019-02-05T05:35:49.429Z,44.8
2019-02-05T05:36:35.801Z,44.8
2019-02-05T05:37:23.964Z,44.8
2019-02-05T05:38:14.251Z,44.8
2019-02-05T05:39:04.201Z,44.8
2019-02-05T05:39:54.471Z,44.8
2019-02-05T05:40:44.637Z,44.8
2019-02-05T05:41:34.101Z,44.8
2019-02-05T05:42:24.335Z,44.7
2019-02-05T05:43:14.093Z,44.7
2019-02-05T05:44:04.790Z,44.7
2019-02-05T05:44:54.377Z,44.6
2019-02-05T05:45:47.185Z,44.6
2019-02-05T05:46:34.281Z,44.6
2019-02-05T05:47:24.748Z,44.6
2019-02-05T05:48:14.845Z,44.6
2019-02-05T05:49:05.190Z,44.6
2019-02-05T05:49:54.672Z,44.6
2019-02-05T05:50:45.357Z,44.6
2019-02-05T05:51:36.182Z,44.6
2019-02-05T05:52:25.130Z,44.6
2019-02-05T05:53:15.448Z,44.5
2019-02-05T05:54:05.214Z,44.5
2019-02-05T05:54:55.577Z,44.5
2019-02-05T05:55:45.114Z,44.5
2019-02-05T05:56:34.872Z,44.5
2019-02-05T05:57:25.660Z,44.5
2019-02-05T05:58:30.450Z,44.4
2019-02-05T05:59:05.720Z,44.4
2019-02-05T05:59:55.655Z,44.4
2019-02-05T06:00:48.520Z,44.4
2019-02-05T06:01:35.719Z,44.4
2019-02-05T06:02:25.852Z,44.4
2019-02-05T06:03:16.037Z,44.4
2019-02-05T06:04:05.966Z,44.4
2019-02-05T06:06:21.518Z,44.3
2019-02-05T06:07:11.253Z,44.3
2019-02-05T06:08:02.238Z,44.3
2019-02-05T06:08:54.180Z,44.3
2019-02-05T06:09:42.154Z,44.3
2019-02-05T06:10:31.647Z,44.3
2019-02-05T06:11:22.082Z,44.3
2019-02-05T06:12:11.046Z,44.3
2019-02-05T06:13:02.597Z,44.3
2019-02-05T06:13:52.536Z,44.3
2019-02-05T06:14:42.850Z,44.3
2019-02-05T06:15:32.222Z,44.2
2019-02-05T06:16:22.448Z,44.2
2019-02-05T06:17:12.489Z,44.2
2019-02-05T06:18:05.589Z,44.2
2019-02-05T06:18:52.966Z,44.2
2019-02-05T06:19:41.577Z,44.2
2019-02-05T06:20:32.746Z,44.2
2019-02-05T06:21:21.973Z,44.1
2019-02-05T06:22:12.921Z,44.1
2019-02-05T06:23:02.914Z,44.1
2019-02-05T06:23:55.934Z,44.1
2019-02-05T06:24:43.029Z,44.1
2019-02-05T06:25:32.586Z,44.1
2019-02-05T06:26:25.356Z,44.1
2019-02-05T06:27:12.956Z,44.1
2019-02-05T06:28:03.526Z,44
2019-02-05T06:28:53.661Z,44
2019-02-05T06:29:44.616Z,44
2019-02-05T06:30:33.428Z,44
2019-02-05T06:31:23.763Z,44
2019-02-05T06:32:13.372Z,44
2019-02-05T06:33:04.273Z,44
2019-02-05T06:33:53.665Z,43.9
2019-02-05T06:34:43.718Z,43.9
2019-02-05T06:35:33.595Z,43.9
2019-02-05T06:36:24.151Z,43.9
2019-02-05T06:37:13.925Z,43.9
2019-02-05T06:38:04.242Z,43.9
2019-02-05T06:38:56.075Z,43.9
2019-02-05T06:39:43.950Z,43.9
2019-02-05T06:40:34.478Z,43.8
2019-02-05T06:41:23.936Z,43.8
2019-02-05T06:42:14.560Z,43.9
2019-02-05T06:43:04.600Z,43.8
2019-02-05T06:43:54.037Z,43.8
2019-02-05T06:44:45.371Z,43.8
2019-02-05T06:45:34.484Z,43.8
2019-02-05T06:46:24.501Z,43.8
2019-02-05T06:47:14.311Z,43.8
2019-02-05T06:48:06.057Z,43.7
2019-02-05T06:48:54.392Z,43.6
2019-02-05T06:49:44.836Z,43.6
2019-02-05T06:50:34.820Z,43.5
2019-02-05T06:51:24.886Z,43.4
2019-02-05T06:52:15.182Z,43.4
2019-02-05T06:53:04.984Z,43.4
2019-02-05T06:53:56.992Z,43.4
2019-02-05T06:54:44.564Z,43.4
2019-02-05T06:55:34.676Z,43.4
2019-02-05T06:56:25.020Z,43.3
2019-02-05T06:57:14.708Z,43.3
2019-02-05T06:58:05.084Z,43.3
2019-02-05T06:58:54.534Z,43.3
2019-02-05T06:59:46.389Z,43.3
2019-02-05T07:00:34.952Z,43.2
2019-02-05T07:01:25.635Z,43.2
2019-02-05T07:02:15.073Z,43.1
2019-02-05T07:03:07.283Z,43.1
2019-02-05T07:03:55.736Z,43.1
2019-02-05T07:06:21.406Z,43.1
2019-02-05T07:07:11.203Z,43.1
2019-02-05T07:08:01.821Z,43.1
2019-02-05T07:08:53.063Z,43.1
2019-02-05T07:09:42.246Z,43
2019-02-05T07:10:32.023Z,43
2019-02-05T07:11:22.151Z,43
2019-02-05T07:12:12.098Z,43
2019-02-05T07:13:02.240Z,42.9
2019-02-05T07:13:52.230Z,42.9
2019-02-05T07:14:44.301Z,42.9
2019-02-05T07:15:32.636Z,42.9
2019-02-05T07:16:22.410Z,42.9
2019-02-05T07:17:11.877Z,42.9
2019-02-05T07:18:02.792Z,42.9
2019-02-05T07:18:52.010Z,42.9
2019-02-05T07:19:42.897Z,42.8
2019-02-05T07:20:33.270Z,42.8
2019-02-05T07:21:22.465Z,42.8
2019-02-05T07:22:13.154Z,42.8
2019-02-05T07:23:03.251Z,42.8
2019-02-05T07:23:54.195Z,42.8
2019-02-05T07:24:42.449Z,42.8
2019-02-05T07:25:33.042Z,42.7
2019-02-05T07:26:23.087Z,42.7
2019-02-05T07:27:13.169Z,42.7
2019-02-05T07:28:02.444Z,42.6
2019-02-05T07:29:06.274Z,42.6
2019-02-05T07:29:45.537Z,42.6
2019-02-05T07:30:33.347Z,42.6
2019-02-05T07:31:23.171Z,42.6
2019-02-05T07:32:13.844Z,42.6
2019-02-05T07:33:03.337Z,42.6
2019-02-05T07:33:53.774Z,42.6
2019-02-05T07:34:43.918Z,42.6
2019-02-05T07:35:35.047Z,42.5
2019-02-05T07:36:24.189Z,42.5
2019-02-05T07:37:13.924Z,42.4
2019-02-05T07:38:04.003Z,42.4
2019-02-05T07:38:52.924Z,42.4
2019-02-05T07:39:43.269Z,42.4
2019-02-05T07:40:33.974Z,42.4
2019-02-05T07:41:25.516Z,42.4
2019-02-05T07:42:13.751Z,42.4
2019-02-05T07:43:03.349Z,42.4
2019-02-05T07:43:54.464Z,42.4
2019-02-05T07:44:45.382Z,42.3
2019-02-05T07:45:33.796Z,42.3
2019-02-05T07:46:24.212Z,42.3
2019-02-05T07:47:16.119Z,42.3
2019-02-05T07:48:04.400Z,42.3
2019-02-05T07:48:54.716Z,42.3
2019-02-05T07:49:45.030Z,42.3
2019-02-05T07:50:34.488Z,42.3
2019-02-05T07:51:25.314Z,42.2
2019-02-05T07:52:14.704Z,42.2
2019-02-05T07:53:04.788Z,42.2
2019-02-05T07:53:54.536Z,42.2
2019-02-05T07:54:45.098Z,42.1
2019-02-05T07:55:34.881Z,42.1
2019-02-05T07:56:26.993Z,42.1
2019-02-05T07:57:15.018Z,42.1
2019-02-05T07:58:05.358Z,42.1
2019-02-05T07:58:55.372Z,42.1
2019-02-05T07:59:48.456Z,42
2019-02-05T08:00:35.873Z,41.9
2019-02-05T08:01:25.381Z,41.9
2019-02-05T08:02:17.862Z,41.9
2019-02-05T08:03:05.512Z,41.9
2019-02-05T08:03:55.282Z,41.9
2019-02-05T08:04:45.665Z,41.9
2019-02-05T08:05:36.141Z,41.9
2019-02-05T08:06:25.747Z,41.8
2019-02-05T08:07:15.450Z,41.8
2019-02-05T08:08:21.349Z,41.8
2019-02-05T08:08:56.082Z,41.8
2019-02-05T08:09:45.877Z,41.8
2019-02-05T08:10:36.258Z,41.8
2019-02-05T08:11:26.162Z,41.8
2019-02-05T08:12:16.129Z,41.7
2019-02-05T08:13:06.477Z,41.7
2019-02-05T08:13:57.367Z,41.7
2019-02-05T08:14:46.299Z,41.7
2019-02-05T08:15:36.611Z,41.7
2019-02-05T08:16:26.615Z,41.6
2019-02-05T08:17:17.035Z,41.6
2019-02-05T08:18:06.504Z,41.6
2019-02-05T08:18:56.516Z,41.6
2019-02-05T08:19:48.973Z,41.6
2019-02-05T08:20:37.025Z,41.6
2019-02-05T08:21:26.856Z,41.6
2019-02-05T08:22:16.839Z,41.6
2019-02-05T08:23:07.165Z,41.5
2019-02-05T08:23:56.866Z,41.5
2019-02-05T08:24:47.446Z,41.5
2019-02-05T08:25:39.303Z,41.5
2019-02-05T08:26:27.334Z,41.4
2019-02-05T08:27:16.651Z,41.4
2019-02-05T08:28:07.615Z,41.4
2019-02-05T08:28:57.756Z,41.4
2019-02-05T08:29:46.709Z,41.4
2019-02-05T08:30:37.643Z,41.4
2019-02-05T08:31:28.049Z,41.4
2019-02-05T08:32:18.036Z,41.3
2019-02-05T08:33:07.340Z,41.3
2019-02-05T08:33:57.573Z,41.3
2019-02-05T08:34:50.598Z,41.3
2019-02-05T08:35:37.680Z,41.3
2019-02-05T08:36:28.025Z,41.3
2019-02-05T08:37:18.458Z,41.2
2019-02-05T08:38:07.935Z,41.3
2019-02-05T08:38:58.462Z,41.2
2019-02-05T08:39:46.638Z,41.2
2019-02-05T08:40:40.896Z,41.2
2019-02-05T08:41:27.305Z,41.2
2019-02-05T08:42:18.207Z,41.2
2019-02-05T08:43:08.205Z,41.1
2019-02-05T08:43:58.785Z,41.1
2019-02-05T08:44:48.062Z,41.1
2019-02-05T08:45:38.532Z,41.1
2019-02-05T08:46:29.287Z,41.1
2019-02-05T08:47:18.227Z,41.1
2019-02-05T08:48:08.837Z,41.1
2019-02-05T08:48:58.910Z,41
2019-02-05T08:49:49.640Z,41
2019-02-05T08:50:38.862Z,40.9
2019-02-05T08:51:27.937Z,40.9
2019-02-05T08:52:19.389Z,40.9
2019-02-05T08:53:08.446Z,40.9
2019-02-05T08:53:59.231Z,40.9
2019-02-05T08:54:49.304Z,40.9
2019-02-05T08:55:40.863Z,40.9
2019-02-05T08:56:29.478Z,40.9
2019-02-05T08:57:19.479Z,40.9
2019-02-05T08:58:09.118Z,40.9
2019-02-05T08:58:59.582Z,40.8
2019-02-05T08:59:49.653Z,40.8
2019-02-05T09:00:40.121Z,40.8
2019-02-05T09:01:32.276Z,40.8
2019-02-05T09:02:19.028Z,40.8
2019-02-05T09:03:09.891Z,40.8
2019-02-05T09:03:59.436Z,40.8
2019-02-05T09:04:49.981Z,40.8
2019-02-05T09:05:39.896Z,40.7
2019-02-05T09:06:30.096Z,40.7
2019-02-05T09:07:21.559Z,40.7
2019-02-05T09:08:10.356Z,40.6
2019-02-05T09:09:00.273Z,40.6
2019-02-05T09:09:50.618Z,40.6
2019-02-05T09:10:39.833Z,40.6
2019-02-05T09:11:29.998Z,40.6
2019-02-05T09:12:23.623Z,40.6
2019-02-05T09:13:10.561Z,40.6
2019-02-05T09:14:14.865Z,40.6
2019-02-05T09:14:50.495Z,40.5
2019-02-05T09:15:40.523Z,40.6
2019-02-05T09:16:33.382Z,40.5
2019-02-05T09:17:20.318Z,40.5
2019-02-05T09:18:09.893Z,40.4
2019-02-05T09:19:01.356Z,40.5
2019-02-05T09:19:50.780Z,40.4
2019-02-05T09:20:39.988Z,40.4
2019-02-05T09:21:31.147Z,40.4
2019-02-05T09:22:22.559Z,40.4
2019-02-05T09:23:14.692Z,40.4
2019-02-05T09:24:01.060Z,40.4
2019-02-05T09:24:51.190Z,40.4
2019-02-05T09:25:41.504Z,40.4
2019-02-05T09:26:31.191Z,40.4
2019-02-05T09:27:21.829Z,40.3
2019-02-05T09:28:12.227Z,40.3
2019-02-05T09:29:01.971Z,40.3
2019-02-05T09:29:51.714Z,40.3
2019-02-05T09:30:42.087Z,40.3
2019-02-05T09:31:33.819Z,40.3
2019-02-05T09:32:21.876Z,40.3
2019-02-05T09:33:12.016Z,40.2
2019-02-05T09:34:01.845Z,40.2
2019-02-05T09:34:52.452Z,40.2
2019-02-05T09:35:41.889Z,40.2
2019-02-05T09:36:31.736Z,40.2
2019-02-05T09:37:24.252Z,40.2
2019-02-05T09:38:28.021Z,40.1
2019-02-05T09:39:52.716Z,40.1
2019-02-05T09:40:41.996Z,40.1
2019-02-05T09:41:32.051Z,40.1
2019-02-05T09:42:21.649Z,40.1
2019-02-05T09:43:14.327Z,40.1
2019-02-05T09:44:02.153Z,40.1
2019-02-05T09:44:52.883Z,40.1
2019-02-05T09:45:43.136Z,40
2019-02-05T09:46:33.871Z,40
2019-02-05T09:47:22.998Z,40
2019-02-05T09:48:12.908Z,40
2019-02-05T09:49:17.293Z,39.9
2019-02-05T09:49:52.858Z,39.9
2019-02-05T09:50:50.448Z,39.9
2019-02-05T09:51:33.516Z,39.9
2019-02-05T09:52:25.910Z,39.9
2019-02-05T09:53:13.721Z,39.9
2019-02-05T09:54:03.440Z,39.9
2019-02-05T09:54:53.180Z,39.9
2019-02-05T09:55:43.592Z,39.9
2019-02-05T09:56:33.630Z,39.9
2019-02-05T09:57:24.093Z,39.8
2019-02-05T09:58:15.288Z,39.8
2019-02-05T09:59:03.771Z,39.8
2019-02-05T09:59:53.315Z,39.8
2019-02-05T10:00:43.790Z,39.8
2019-02-05T10:01:32.861Z,39.8
2019-02-05T10:02:24.780Z,39.8
2019-02-05T10:03:14.448Z,39.8
2019-02-05T10:04:04.730Z,39.8
2019-02-05T10:04:54.230Z,39.7
2019-02-05T10:07:36.167Z,39.7
2019-02-05T10:08:13.255Z,39.7
2019-02-05T10:09:17.347Z,39.7
2019-02-05T10:10:08.789Z,39.6
2019-02-05T10:10:43.324Z,39.6
2019-02-05T10:11:47.943Z,39.6
2019-02-05T10:12:31.581Z,39.6
2019-02-05T10:13:51.478Z,39.6
2019-02-05T10:14:36.178Z,39.6
2019-02-05T10:15:38.959Z,39.6
2019-02-05T10:16:06.749Z,39.6
2019-02-05T10:16:55.943Z,39.6
2019-02-05T10:18:32.972Z,39.5
2019-02-05T10:18:50.106Z,39.5
2019-02-05T10:20:43.045Z,39.4
2019-02-05T10:21:32.289Z,39.4
2019-02-05T10:23:33.321Z,39.4
2019-02-05T10:24:09.836Z,39.4
2019-02-05T10:25:12.793Z,39.4
2019-02-05T10:26:53.938Z,39.4
2019-02-05T10:27:43.496Z,39.4
2019-02-05T10:28:33.576Z,39.4
2019-02-05T10:29:24.353Z,39.4
2019-02-05T10:30:12.560Z,39.3
2019-02-05T10:31:02.904Z,39.3
2019-02-05T10:32:08.518Z,39.3
2019-02-05T10:32:43.608Z,49.3
2019-02-05T10:33:33.640Z,47.8
2019-02-05T10:34:36.325Z,47.3
2019-02-05T10:35:16.045Z,52.9
2019-02-05T10:36:06.640Z,54.5
2019-02-05T10:36:53.866Z,54.4
2019-02-05T10:37:58.632Z,53.6
2019-02-05T10:39:24.494Z,51.9
2019-02-05T10:40:14.192Z,51.2
2019-02-05T10:41:05.225Z,50.6
2019-02-05T10:41:54.200Z,50
2019-02-05T10:42:46.836Z,49.5
2019-02-05T10:43:34.640Z,48.9
2019-02-05T10:44:26.067Z,48.6
2019-02-05T10:45:46.542Z,48.1
2019-02-05T10:46:04.434Z,51.1
2019-02-05T10:47:45.005Z,51.2
2019-02-05T10:48:35.222Z,53.7
2019-02-05T10:49:25.176Z,56.2
2019-02-05T10:50:18.061Z,57.1
2019-02-05T10:51:04.401Z,56.8
2019-02-05T10:51:53.945Z,56.3
2019-02-05T10:52:45.057Z,56.1
2019-02-05T10:53:35.109Z,56.1
2019-02-05T10:54:24.875Z,56.2
2019-02-05T10:55:15.204Z,56.4
2019-02-05T10:56:06.459Z,56.8
2019-02-05T10:56:55.121Z,57.1
2019-02-05T10:57:45.369Z,57.3
2019-02-05T10:58:34.618Z,57.4
2019-02-05T10:59:25.229Z,57.5
2019-02-05T11:00:15.337Z,57.6
2019-02-05T11:01:56.531Z,57.9
2019-02-05T11:02:46.808Z,57.9
2019-02-05T11:03:35.724Z,58.1
2019-02-05T11:04:26.098Z,58.2
2019-02-05T11:05:17.616Z,58.3
2019-02-05T11:06:05.338Z,58.4
2019-02-05T11:06:56.585Z,58.5
2019-02-05T11:07:46.245Z,58.6
2019-02-05T11:08:51.256Z,58.7
2019-02-05T11:09:26.107Z,58.9
2019-02-05T11:10:16.490Z,58.9
2019-02-05T11:11:08.605Z,59.1
2019-02-05T11:11:56.719Z,59.1
2019-02-05T11:12:46.413Z,59.3
2019-02-05T11:13:36.713Z,59.3
2019-02-05T11:14:26.376Z,59.3
2019-02-05T11:15:16.802Z,59.4
2019-02-05T11:16:07.524Z,59.4
2019-02-05T11:16:57.822Z,59.5
2019-02-05T11:17:46.445Z,59.6
2019-02-05T11:18:37.360Z,59.7
2019-02-05T11:19:26.903Z,59.7
2019-02-05T11:20:18.775Z,59.8
2019-02-05T11:21:09.657Z,59.8
2019-02-05T11:21:57.320Z,59.9
2019-02-05T11:22:47.379Z,59.9
2019-02-05T11:23:37.712Z,59.9
2019-02-05T11:24:27.830Z,60.1